• Join FlightAware (Why Join?)
  • Login
  • US Flag 
07:57AM EDT


 

Airport Tracker/Info


-or-


 

Live Flight TrackerFlight Track Log ✈ EJA831 ✈ 01-May-2013 ✈ KMMU - KRMN

Flight Track Log - Related Links

Times and Time Zones

All times are in EDT time to prevent confusion due to time zone crossing. See the EJA831 flight status page for this flight to view local times or setup timezone preferences in your user account.

Time Position Orientation Groundspeed Altitude Reporting Facility
EDT Latitude Longitude Course Direction KTS MPH feet Rate Location/Type
12:53PM 40.8500 -74.3667 21° North 206 237 3,700  Level New York TRACON
12:54PM 40.9167 -74.3333 21° North 266 306 8,500 3,720 Climbing New York TRACON
12:55PM 40.9333 -74.4333 282° West 314 361 11,200 2,700 Climbing New York TRACON
12:56PM 40.9000 -74.5500 249° West 330 380 13,900 1,320 Climbing New York TRACON
12:57PM 40.8619 -74.6644 246° West 348 400 14,000 300 Climbing New York Center
12:58PM 40.8100 -74.7875 241° Southwest 358 412 14,600 960 Climbing New York Center
12:59PM 40.7603 -74.9025 240° Southwest 358 412 15,900 1,140 Climbing New York Center
01:00PM 40.7103 -75.0144 240° Southwest 358 412 17,000 1,020 Climbing New York Center
01:01PM 40.6583 -75.1289 239° Southwest 363 418 18,000 1,260 Climbing New York Center
01:02PM 40.6083 -75.2406 239° Southwest 363 418 19,600 960 Climbing New York Center
01:03PM 40.5558 -75.3572 239° Southwest 363 418 20,000 180 Climbing New York Center
01:04PM 40.4986 -75.4844 239° Southwest 388 447 20,000  Level New York Center
01:05PM 40.4394 -75.6114 239° Southwest 401 461 20,000  Level New York Center
01:06PM 40.3819 -75.7381 239° Southwest 406 467 20,000  Level New York Center
01:07PM 40.3247 -75.8592 238° Southwest 412 474 20,000  Level New York Center
01:08PM 40.2675 -75.9747 237° Southwest 412 474 20,000  Level New York Center
01:09PM 40.2097 -76.1008 239° Southwest 412 474 20,000 -60 Level New York Center
01:10PM 40.1472 -76.2372 239° Southwest 404 465 19,900 -660 Descending New York Center
01:11PM 40.0944 -76.3444 237° Southwest 404 465 18,700 -1,140 Descending New York Center
01:12PM 40.0386 -76.4647 239° Southwest 391 450 17,700 -1,260 Descending New York Center
01:13PM 39.9872 -76.5797 240° Southwest 386 444 16,200 -900 Descending New York Center
01:15PM 39.8667 -76.8333 238° Southwest 365 420 15,000 -420 Descending Potomac TRACON
01:16PM 39.8167 -76.9500 241° Southwest 364 419 15,000  Level Potomac TRACON
01:17PM 39.7667 -77.0667 241° Southwest 364 419 15,000  Level Potomac TRACON
01:18PM 39.7167 -77.1667 237° Southwest 367 422 15,000 -1,080 Level Potomac TRACON
01:19PM 39.6500 -77.2833 233° Southwest 352 405 12,900 -2,160 Descending Potomac TRACON
01:20PM 39.6167 -77.3667 243° Southwest 346 398 10,900 -2,040 Descending Potomac TRACON
01:21PM 39.5500 -77.4500 224° Southwest 310 357 8,800 -1,500 Descending Potomac TRACON
01:22PM 39.5000 -77.5000 218° Southwest 278 320 8,000 -480 Descending Potomac TRACON
01:23PM 39.4167 -77.5667 212° Southwest 289 333 8,000 -120 Level Potomac TRACON
01:24PM 39.3500 -77.6167 210° Southwest 280 322 7,800 -540 Descending Potomac TRACON
01:25PM 39.2833 -77.6500 201° Southwest 269 310 7,000 -420 Descending Potomac TRACON
01:26PM 39.2000 -77.6667 189° South 270 311 7,000 -240 Level Potomac TRACON
01:27PM 39.1333 -77.6667 180° South 264 304 6,600 -540 Descending Potomac TRACON
01:28PM 39.0667 -77.6833 191° South 263 303 6,000 -900 Descending Potomac TRACON
01:29PM 38.9833 -77.7000 189° South 267 307 4,900 -1,080 Descending Potomac TRACON
01:30PM 38.9167 -77.7000 180° South 255 293 4,000 -480 Descending Potomac TRACON
01:31PM 38.8500 -77.7167 191° South 250 288 4,000  Level Potomac TRACON
01:32PM 38.7667 -77.7167 180° South 262 302 4,000  Level Potomac TRACON
01:33PM 38.7000 -77.7333 191° South 265 305 4,000  Level Potomac TRACON
01:34PM 38.6333 -77.7167 169° South 261 300 4,000  Level Potomac TRACON
01:35PM 38.5500 -77.7000 171° South 249 287 4,000  Level Potomac TRACON
01:36PM 38.5000 -77.6500 142° Southeast 241 277 4,000 -240 Level Potomac TRACON
01:37PM 38.4500 -77.6000 142° Southeast 209 241 3,600 -840 Descending Potomac TRACON
01:38PM 38.4500 -77.5333 90° East 195 224 2,400 -1,320 Descending Potomac TRACON
01:39PM 38.4333 -77.4833 113° Southeast 138 159 1,000 -840 Descending Potomac TRACON
01:40PM 38.4000 -77.4667 159° South 130 150 800 -240 Descending Potomac TRACON